KESWICK RESERVOIR (KES)

Elevation: 596' · SACRAMENTO R basin · Operator: US Bureau of Reclamation

Provisional data, subject to change.
Query executed Friday at 12:18:03   clock

Select a sensor type for a plot of data.
Note: Reservoir Flows are daily averages.

Earlier

Date RES ELE    STORAGE    RES CHG    OUTFLOW    INFLOW   
 FEET   AF   AF   CFS   CFS  
07/02/2015 583.13 21362 -30 7105 7095
07/03/2015 584.32 22087 725 7109 7483
07/04/2015 585.19 22626 539 7109 7387
07/05/2015 584.65 22291 -335 7109 6947
07/06/2015 585.27 22677 386 7110 7313
07/07/2015 584.93 22464 -213 7105 7004
07/08/2015 583.04 21307 -1157 7107 6531
07/09/2015 581.40 20334 -973 7073 6585
07/10/2015 580.84 20008 -326 7065 6905
07/11/2015 581.39 20329 321 7059 7224
07/12/2015 581.68 20498 -- 7116 7204
07/13/2015 581.94 20651 153 7106 7188
07/14/2015 583.13 21362 711 7097 7461
07/15/2015 583.63 21665 303 7027 7187
07/16/2015 583.50 21587 -78 7021 6989
07/17/2015 583.24 21429 -158 6999 6927
07/18/2015 583.87 21811 382 6980 7180
07/19/2015 581.52 20405 -1406 6984 6283
07/20/2015 583.27 21447 1042 6938 7471
07/21/2015 579.76 19389 -2058 6953 5921
07/22/2015 580.26 19674 285 6950 7100
07/23/2015 581.33 20293 619 6950 7269
07/24/2015 580.88 20031 -262 6953 6825
07/25/2015 580.48 19800 -231 6951 6840
07/26/2015 581.70 20510 710 6621 6986
07/27/2015 581.97 20668 158 6836 6923
07/28/2015 581.05 20129 -539 6951 6685
07/29/2015 582.05 20716 587 6952 7256
07/30/2015 582.01 20692 -24 6891 6887
07/31/2015 -- -- -- -- --

Later | Latest

Warning! This data is preliminary and subject to revision.

Show KES Map | Plot KES Data | 1 Month KES Data | Real-Time KES Data | KES Info